Time;durP1;ratioP1;P1;durP2;ratioP2;P2;SDS_P1;SDS_P2;PMS_P1;PMS_P2;Temp;Humidity;BMP_temperature;BMP_pressure;BME280_temperature;BME280_humidity;BME280_pressure;Samples;Min_cycle;Max_cycle;Signal;HPM_P1;HPM_P2
2021/07/11 00:01:22;;;;;;;23.67;22.47;;;19.50;82.30;;;;;;4989328;28;20466;-70
2021/07/11 00:03:50;;;;;;;23.80;22.60;;;19.50;82.10;;;;;;4988961;28;21327;-70
2021/07/11 00:06:17;;;;;;;23.17;22.03;;;19.50;81.60;;;;;;4988373;28;20501;-70
2021/07/11 00:08:44;;;;;;;23.00;21.90;;;19.40;82.40;;;;;;4981128;28;20494;-70
2021/07/11 00:11:11;;;;;;;23.30;22.00;;;19.40;83.00;;;;;;4984890;28;20461;-70
2021/07/11 00:13:38;;;;;;;23.43;22.23;;;19.30;83.30;;;;;;4990059;28;20461;-70
2021/07/11 00:16:06;;;;;;;22.50;21.40;;;19.30;83.40;;;;;;4990931;28;20479;-70
2021/07/11 00:18:33;;;;;;;22.10;21.00;;;19.30;83.20;;;;;;4988065;28;21036;-70
2021/07/11 00:21:01;;;;;;;22.23;21.03;;;19.20;84.00;;;;;;4995648;28;20992;-70
2021/07/11 00:23:28;;;;;;;21.93;20.87;;;19.10;84.50;;;;;;4984635;28;21016;-70
2021/07/11 00:25:54;;;;;;;21.13;20.00;;;19.10;84.60;;;;;;4989581;28;20513;-70
2021/07/11 00:28:21;;;;;;;21.47;20.37;;;19.00;84.90;;;;;;4992071;28;20482;-70
2021/07/11 00:30:48;;;;;;;22.33;20.87;;;18.90;85.30;;;;;;4989681;28;20457;-70
2021/07/11 00:33:15;;;;;;;21.40;20.40;;;18.90;85.60;;;;;;4987856;28;20457;-70
2021/07/11 00:35:42;;;;;;;21.50;20.40;;;18.80;85.90;;;;;;4987845;28;21003;-70
2021/07/11 00:38:10;;;;;;;22.20;21.10;;;18.80;85.60;;;;;;4987681;28;20468;-70
2021/07/11 00:40:37;;;;;;;20.80;19.80;;;18.80;85.60;;;;;;4988223;28;20456;-70
2021/07/11 00:43:04;;;;;;;21.47;20.37;;;18.80;85.50;;;;;;4991283;28;20468;-70
2021/07/11 00:45:31;;;;;;;23.00;21.77;;;18.80;85.20;;;;;;4988148;28;20473;-70
2021/07/11 00:47:58;;;;;;;21.60;20.40;;;18.70;85.30;;;;;;4989378;28;20457;-70
2021/07/11 00:50:25;;;;;;;21.50;20.30;;;18.70;85.40;;;;;;4988878;28;20914;-70
2021/07/11 00:52:52;;;;;;;21.60;20.60;;;18.70;84.70;;;;;;4993225;28;20539;-70
2021/07/11 00:55:21;;;;;;;21.50;20.50;;;18.70;84.60;;;;;;4986975;28;20851;-70
2021/07/11 00:57:48;;;;;;;21.43;20.43;;;18.60;84.20;;;;;;4988768;28;20468;-70
2021/07/11 01:00:15;;;;;;;21.80;20.60;;;18.70;84.20;;;;;;4985953;28;20468;-70
2021/07/11 01:02:49;;;;;;;21.47;20.37;;;18.60;83.60;;;;;;4987434;28;20548;-70
2021/07/11 01:05:17;;;;;;;22.20;21.10;;;18.60;84.20;;;;;;4987651;28;20473;-71
2021/07/11 01:07:49;;;;;;;21.23;20.23;;;18.60;83.80;;;;;;4988938;28;20901;-70
2021/07/11 01:10:23;;;;;;;21.77;20.67;;;18.50;84.30;;;;;;4985504;28;20486;-70
2021/07/11 01:12:53;;;;;;;21.70;20.60;;;18.50;84.70;;;;;;4983153;28;20475;-71
2021/07/11 01:15:21;;;;;;;22.07;20.87;;;18.40;84.50;;;;;;4984736;28;20961;-71
2021/07/11 01:17:49;;;;;;;21.77;20.67;;;18.40;84.40;;;;;;4985676;28;20457;-70
2021/07/11 01:20:29;;;;;;;22.27;21.17;;;18.40;84.00;;;;;;4986719;28;20445;-70
2021/07/11 01:22:58;;;;;;;22.83;21.53;;;18.40;84.40;;;;;;4988205;28;21063;-70
2021/07/11 01:25:34;;;;;;;21.80;20.80;;;18.50;84.30;;;;;;4986941;28;20491;-70
2021/07/11 01:28:03;;;;;;;22.10;20.90;;;18.50;83.90;;;;;;4987618;28;20472;-70
2021/07/11 01:30:30;;;;;;;21.90;20.70;;;18.30;84.60;;;;;;4982993;28;20521;-71
2021/07/11 01:32:58;;;;;;;22.43;21.13;;;18.30;84.40;;;;;;4984932;28;20457;-70
2021/07/11 01:35:25;;;;;;;21.53;20.53;;;18.30;84.40;;;;;;4986609;28;20508;-70
2021/07/11 01:37:54;;;;;;;21.80;20.70;;;18.30;84.40;;;;;;5000633;28;20498;-70
2021/07/11 01:40:21;;;;;;;21.13;20.13;;;18.40;84.10;;;;;;4987128;28;20486;-70
2021/07/11 01:42:51;;;;;;;21.80;20.70;;;18.40;84.30;;;;;;4987356;28;20461;-70
2021/07/11 01:45:18;;;;;;;22.00;20.87;;;18.30;84.30;;;;;;4989541;28;20483;-71
2021/07/11 01:47:45;;;;;;;21.93;20.83;;;18.30;84.30;;;;;;4986165;28;20561;-71
2021/07/11 01:50:13;;;;;;;21.57;20.30;;;18.30;84.30;;;;;;4986673;28;21092;-71
2021/07/11 01:52:42;;;;;;;21.40;20.30;;;18.30;84.40;;;;;;4999526;28;20524;-70
2021/07/11 01:55:12;;;;;;;21.70;20.60;;;18.30;84.40;;;;;;4989617;28;20616;-70
2021/07/11 01:57:39;;;;;;;20.90;19.90;;;18.30;84.60;;;;;;4990752;28;20468;-70
2021/07/11 02:00:10;;;;;;;21.67;20.50;;;18.30;84.60;;;;;;4984647;28;20474;-70
2021/07/11 02:02:37;;;;;;;21.67;20.60;;;18.30;84.30;;;;;;4985676;28;20534;-70
2021/07/11 02:05:09;;;;;;;22.33;21.07;;;18.40;84.20;;;;;;4986717;28;20474;-70
2021/07/11 02:07:36;;;;;;;21.50;20.40;;;18.40;84.40;;;;;;4984827;28;20476;-70
2021/07/11 02:10:06;;;;;;;21.27;20.17;;;18.30;84.40;;;;;;4984654;28;21018;-70
2021/07/11 02:12:35;;;;;;;21.37;20.17;;;18.30;84.60;;;;;;4984358;28;20453;-70
2021/07/11 02:15:06;;;;;;;21.10;20.10;;;18.30;84.60;;;;;;4986230;28;20707;-70
2021/07/11 02:17:38;;;;;;;21.50;20.50;;;18.30;84.30;;;;;;4988329;28;20476;-70
2021/07/11 02:20:08;;;;;;;21.70;20.60;;;18.30;84.20;;;;;;4989063;28;20480;-70
2021/07/11 02:22:35;;;;;;;21.70;20.50;;;18.30;84.40;;;;;;4990251;28;20812;-70
2021/07/11 02:25:03;;;;;;;22.83;21.53;;;18.20;84.50;;;;;;4991050;28;20496;-70
2021/07/11 02:27:31;;;;;;;21.63;20.43;;;18.30;84.20;;;;;;4989435;28;20936;-70
2021/07/11 02:29:58;;;;;;;22.33;21.03;;;18.30;84.10;;;;;;4991046;28;20477;-70
2021/07/11 02:32:27;;;;;;;22.43;21.20;;;18.30;84.10;;;;;;4995784;28;20507;-70
2021/07/11 02:34:55;;;;;;;22.40;21.30;;;18.30;84.30;;;;;;4990361;28;21013;-70
2021/07/11 02:37:24;;;;;;;22.27;21.07;;;18.30;84.20;;;;;;4990606;28;20981;-70
2021/07/11 02:39:55;;;;;;;21.87;20.77;;;18.30;84.30;;;;;;4993827;28;20457;-70
2021/07/11 02:42:23;;;;;;;22.27;20.87;;;18.30;84.30;;;;;;4987948;28;20556;-70
2021/07/11 02:44:54;;;;;;;23.30;22.10;;;18.30;84.30;;;;;;4994068;28;20566;-70
2021/07/11 02:47:25;;;;;;;21.60;20.50;;;18.30;84.40;;;;;;4991352;28;20619;-70
2021/07/11 02:49:56;;;;;;;21.77;20.67;;;18.30;84.40;;;;;;4990545;28;20477;-70
2021/07/11 02:52:24;;;;;;;22.87;21.50;;;18.30;84.30;;;;;;4985699;28;20529;-70
2021/07/11 02:54:57;;;;;;;21.70;20.50;;;18.30;84.20;;;;;;4990022;28;20512;-70
2021/07/11 02:57:27;;;;;;;21.10;20.10;;;18.40;84.30;;;;;;4993618;28;20873;-70
2021/07/11 02:59:55;;;;;;;22.27;21.00;;;18.30;84.40;;;;;;4991125;28;20838;-70
2021/07/11 03:02:24;;;;;;;23.90;22.50;;;18.30;84.80;;;;;;4986351;28;20472;-70
2021/07/11 03:04:52;;;;;;;21.40;20.40;;;18.20;85.00;;;;;;4986606;28;20484;-70
2021/07/11 03:07:20;;;;;;;22.00;20.80;;;18.20;85.30;;;;;;4990597;28;21909;-70
2021/07/11 03:09:48;;;;;;;22.60;21.40;;;18.20;85.60;;;;;;4987061;28;20486;-70
2021/07/11 03:12:17;;;;;;;21.93;20.70;;;18.20;85.60;;;;;;4988432;28;20486;-70
2021/07/11 03:14:48;;;;;;;21.40;20.40;;;18.20;85.70;;;;;;4988575;28;20983;-70
2021/07/11 03:17:18;;;;;;;21.30;20.20;;;18.20;85.90;;;;;;4993322;28;20543;-70
2021/07/11 03:19:47;;;;;;;21.50;20.50;;;18.20;85.80;;;;;;4988084;28;20556;-70
2021/07/11 03:22:18;;;;;;;21.70;20.70;;;18.20;85.70;;;;;;4985176;28;20458;-70
2021/07/11 03:24:46;;;;;;;24.10;22.80;;;18.10;85.90;;;;;;4990439;28;20597;-70
2021/07/11 03:27:13;;;;;;;22.83;21.33;;;18.10;86.10;;;;;;4993989;28;20545;-70
2021/07/11 03:29:52;;;;;;;21.43;20.30;;;18.20;86.20;;;;;;5002276;28;20516;-70
2021/07/11 03:32:20;;;;;;;20.23;19.23;;;18.20;85.80;;;;;;4990063;28;20471;-70
2021/07/11 03:34:49;;;;;;;20.80;19.80;;;18.20;86.00;;;;;;4989236;28;20507;-71
2021/07/11 03:37:19;;;;;;;21.03;19.93;;;18.20;86.20;;;;;;4986515;28;20464;-70
2021/07/11 03:39:49;;;;;;;21.40;20.20;;;18.20;86.20;;;;;;4995646;28;20454;-70
2021/07/11 03:42:18;;;;;;;20.73;19.73;;;18.20;86.20;;;;;;4990489;28;20464;-70
2021/07/11 03:44:49;;;;;;;21.20;20.20;;;18.10;86.40;;;;;;4985250;28;20840;-70
2021/07/11 03:47:20;;;;;;;20.90;19.90;;;18.10;86.70;;;;;;4990596;28;20460;-70
2021/07/11 03:49:51;;;;;;;21.30;20.20;;;18.10;86.50;;;;;;4985384;28;20483;-70
2021/07/11 03:52:22;;;;;;;21.37;20.20;;;18.20;86.40;;;;;;4989182;28;20461;-70
2021/07/11 03:54:52;;;;;;;22.37;21.27;;;18.20;86.30;;;;;;4990260;28;20838;-70
2021/07/11 03:57:19;;;;;;;21.83;20.40;;;18.20;86.30;;;;;;4988726;28;20778;-70
2021/07/11 03:59:47;;;;;;;20.97;19.87;;;18.20;86.20;;;;;;4988646;28;20523;-70
2021/07/11 04:02:16;;;;;;;21.90;20.83;;;18.20;86.00;;;;;;4988568;28;20510;-71
2021/07/11 04:04:44;;;;;;;21.57;20.47;;;18.20;85.90;;;;;;4987812;28;20477;-70
2021/07/11 04:07:12;;;;;;;22.53;21.43;;;18.30;85.80;;;;;;4985563;28;20462;-70
2021/07/11 04:09:42;;;;;;;21.87;20.83;;;18.30;85.50;;;;;;4985372;28;20474;-70
2021/07/11 04:12:11;;;;;;;22.57;21.37;;;18.30;85.30;;;;;;4986857;28;20472;-70
2021/07/11 04:14:39;;;;;;;22.17;20.97;;;18.30;85.20;;;;;;4989945;28;20477;-70
2021/07/11 04:17:09;;;;;;;22.47;21.37;;;18.30;85.30;;;;;;4988399;28;20496;-70
2021/07/11 04:19:40;;;;;;;22.33;21.23;;;18.30;85.30;;;;;;4988641;28;20457;-70
2021/07/11 04:22:11;;;;;;;22.60;21.40;;;18.40;84.90;;;;;;4991092;28;20977;-70
2021/07/11 04:24:38;;;;;;;22.30;21.10;;;18.40;85.10;;;;;;4989482;28;20477;-70
2021/07/11 04:27:06;;;;;;;21.60;20.50;;;18.40;85.10;;;;;;4988805;28;20536;-70
2021/07/11 04:29:34;;;;;;;22.50;21.40;;;18.40;85.10;;;;;;5001253;28;20539;-70
2021/07/11 04:32:02;;;;;;;22.20;21.03;;;18.40;85.00;;;;;;4982897;28;20568;-70
2021/07/11 04:34:30;;;;;;;22.70;21.50;;;18.40;84.80;;;;;;4987513;28;21248;-70
2021/07/11 04:36:59;;;;;;;22.50;21.40;;;18.50;84.50;;;;;;4986459;28;20905;-70
2021/07/11 04:39:26;;;;;;;22.40;21.20;;;18.50;84.40;;;;;;4993322;28;20476;-70
2021/07/11 04:41:53;;;;;;;23.30;22.10;;;18.60;84.30;;;;;;4986969;28;20820;-70
2021/07/11 04:44:21;;;;;;;22.60;21.30;;;18.60;84.40;;;;;;4988458;28;20473;-70
2021/07/11 04:46:49;;;;;;;22.70;21.60;;;18.70;84.20;;;;;;4986001;28;20991;-70
2021/07/11 04:49:16;;;;;;;22.57;21.37;;;18.70;84.00;;;;;;4989757;28;20467;-70
2021/07/11 04:51:43;;;;;;;22.00;20.90;;;18.70;83.60;;;;;;4992450;28;20453;-70
2021/07/11 04:54:10;;;;;;;23.03;21.93;;;18.70;83.90;;;;;;4991083;28;20468;-70
2021/07/11 04:56:38;;;;;;;22.37;21.27;;;18.70;83.70;;;;;;4987474;28;20970;-70
2021/07/11 04:59:05;;;;;;;22.20;21.10;;;18.70;83.70;;;;;;4987334;28;20461;-70
2021/07/11 05:01:32;;;;;;;22.60;21.50;;;18.70;83.80;;;;;;4981438;28;20470;-71
2021/07/11 05:04:01;;;;;;;22.70;21.50;;;18.70;84.00;;;;;;5004201;28;21051;-70
2021/07/11 05:06:28;;;;;;;23.17;21.97;;;18.70;84.00;;;;;;4987288;28;20492;-70
2021/07/11 05:08:55;;;;;;;22.90;21.53;;;18.80;83.80;;;;;;4987086;28;20461;-71
2021/07/11 05:11:22;;;;;;;23.90;22.63;;;18.80;83.50;;;;;;4986605;28;20485;-71
2021/07/11 05:13:49;;;;;;;22.77;21.47;;;18.90;83.30;;;;;;4987335;28;20975;-70
2021/07/11 05:16:16;;;;;;;21.97;20.87;;;18.80;83.80;;;;;;4979830;28;20481;-71
2021/07/11 05:18:43;;;;;;;22.50;21.37;;;18.90;83.50;;;;;;4990049;28;20458;-70
2021/07/11 05:21:11;;;;;;;22.10;20.70;;;18.90;83.50;;;;;;4991114;28;20637;-70
2021/07/11 05:23:38;;;;;;;22.47;21.27;;;18.90;83.50;;;;;;4988435;28;20472;-70
2021/07/11 05:26:05;;;;;;;23.00;21.67;;;19.00;83.40;;;;;;4987473;28;20490;-71
2021/07/11 05:28:31;;;;;;;23.07;21.87;;;19.00;83.50;;;;;;4987455;28;22089;-70
2021/07/11 05:30:58;;;;;;;22.83;21.63;;;18.90;83.80;;;;;;4987272;28;20478;-70
2021/07/11 05:33:26;;;;;;;23.60;22.40;;;18.80;84.00;;;;;;4993456;28;20892;-70
2021/07/11 05:35:53;;;;;;;25.50;23.93;;;18.90;84.10;;;;;;4987048;28;20503;-70
2021/07/11 05:38:21;;;;;;;22.03;20.93;;;19.00;83.90;;;;;;4988614;28;20472;-70
2021/07/11 05:40:48;;;;;;;23.93;22.53;;;19.00;83.90;;;;;;4988752;28;20859;-70
2021/07/11 05:43:16;;;;;;;22.77;21.57;;;19.10;83.80;;;;;;4985736;28;20468;-70
2021/07/11 05:45:43;;;;;;;22.80;21.50;;;19.20;83.40;;;;;;4986250;28;20479;-70
2021/07/11 05:48:10;;;;;;;24.20;22.90;;;19.40;82.80;;;;;;4988699;28;20488;-70
2021/07/11 05:50:37;;;;;;;23.53;22.23;;;19.50;82.20;;;;;;4988118;28;20478;-70
2021/07/11 05:53:04;;;;;;;24.10;22.80;;;19.70;81.80;;;;;;4986657;28;20568;-70
2021/07/11 05:55:32;;;;;;;24.90;23.60;;;19.80;81.30;;;;;;4985924;28;20481;-70
2021/07/11 05:57:59;;;;;;;24.50;23.20;;;20.00;80.80;;;;;;4983187;28;20859;-71
2021/07/11 06:00:26;;;;;;;24.90;23.60;;;20.10;80.20;;;;;;4986420;28;20459;-70
2021/07/11 06:02:53;;;;;;;24.70;23.47;;;20.30;79.30;;;;;;4990515;28;20458;-70
2021/07/11 06:05:19;;;;;;;26.50;25.10;;;20.50;78.10;;;;;;4987985;28;20482;-70
2021/07/11 06:07:46;;;;;;;25.60;24.10;;;20.60;77.70;;;;;;4990077;28;20480;-75
2021/07/11 06:10:13;;;;;;;27.23;25.73;;;20.80;77.00;;;;;;5000015;28;20480;-70
2021/07/11 06:12:42;;;;;;;26.40;25.00;;;20.90;75.40;;;;;;4981419;28;21221;-70
2021/07/11 06:15:10;;;;;;;26.20;24.60;;;21.00;75.50;;;;;;4985256;28;20495;-70
2021/07/11 06:17:37;;;;;;;27.53;25.80;;;21.10;75.50;;;;;;4986585;28;20458;-70
2021/07/11 06:20:07;;;;;;;26.10;24.67;;;21.30;75.10;;;;;;4986789;28;20466;-70
2021/07/11 06:22:34;;;;;;;26.23;24.83;;;21.40;73.70;;;;;;4980760;28;20469;-70
2021/07/11 06:25:06;;;;;;;26.33;25.03;;;21.60;71.90;;;;;;4989637;28;20568;-70
2021/07/11 06:27:33;;;;;;;26.83;25.03;;;21.20;71.20;;;;;;4991689;28;20453;-71
2021/07/11 06:30:02;;;;;;;26.77;25.37;;;21.20;72.20;;;;;;4983687;28;20561;-70
2021/07/11 06:32:28;;;;;;;26.07;24.53;;;21.30;71.30;;;;;;4986648;28;20457;-73
2021/07/11 06:34:55;;;;;;;26.63;25.23;;;21.40;71.30;;;;;;4994407;28;20543;-71
2021/07/11 06:37:22;;;;;;;26.20;24.90;;;21.40;71.40;;;;;;4989214;28;20462;-71
2021/07/11 06:39:49;;;;;;;26.60;25.20;;;21.40;70.50;;;;;;4999778;28;20517;-71
2021/07/11 06:42:16;;;;;;;27.70;26.00;;;21.50;69.90;;;;;;4989677;28;20461;-70
2021/07/11 06:44:43;;;;;;;26.70;25.30;;;21.30;69.80;;;;;;4985549;28;20492;-71
2021/07/11 06:47:12;;;;;;;26.50;25.10;;;21.30;70.20;;;;;;4985109;28;21018;-72
2021/07/11 06:49:38;;;;;;;26.13;24.73;;;21.50;69.80;;;;;;4988666;28;20454;-75
2021/07/11 06:52:06;;;;;;;26.40;24.87;;;21.70;68.80;;;;;;4988435;28;20473;-71
2021/07/11 06:54:33;;;;;;;27.47;25.97;;;22.00;68.70;;;;;;4987900;28;20484;-71
2021/07/11 06:57:00;;;;;;;26.83;25.30;;;22.10;67.70;;;;;;4987902;28;20497;-71
2021/07/11 06:59:27;;;;;;;26.30;25.00;;;22.20;67.60;;;;;;4988972;28;20454;-70
2021/07/11 07:01:54;;;;;;;25.63;24.33;;;22.30;68.10;;;;;;4986521;28;20495;-72
2021/07/11 07:04:22;;;;;;;26.63;25.13;;;22.20;67.00;;;;;;4988787;28;20557;-72
2021/07/11 07:06:51;;;;;;;25.83;24.53;;;21.90;67.90;;;;;;4987119;28;20469;-72
2021/07/11 07:09:18;;;;;;;26.07;24.67;;;21.70;68.30;;;;;;4992752;28;20520;-72
2021/07/11 07:11:45;;;;;;;26.07;24.77;;;21.50;68.60;;;;;;4988752;28;20495;-72
2021/07/11 07:14:12;;;;;;;27.20;25.70;;;21.60;68.90;;;;;;4989621;28;21070;-72
2021/07/11 07:16:39;;;;;;;26.03;24.60;;;21.30;69.60;;;;;;4990063;28;20470;-72
2021/07/11 07:19:06;;;;;;;26.67;25.27;;;21.40;69.30;;;;;;4993358;28;20460;-72
2021/07/11 07:21:35;;;;;;;27.10;25.50;;;21.60;69.30;;;;;;4989565;28;20951;-72
2021/07/11 07:24:02;;;;;;;26.37;24.97;;;21.70;68.60;;;;;;4991369;28;20457;-72
2021/07/11 07:26:28;;;;;;;26.37;24.87;;;21.90;68.50;;;;;;4989404;28;20497;-71
2021/07/11 07:28:55;;;;;;;27.10;25.63;;;22.00;68.30;;;;;;4994818;28;20495;-71
2021/07/11 07:31:22;;;;;;;26.60;25.00;;;22.10;67.70;;;;;;4990175;28;20886;-70
2021/07/11 07:33:49;;;;;;;25.90;24.50;;;22.10;67.40;;;;;;4990571;28;20461;-73
2021/07/11 07:36:16;;;;;;;25.73;24.33;;;22.10;68.10;;;;;;4989496;28;20517;-72
2021/07/11 07:38:45;;;;;;;26.70;25.30;;;22.40;67.30;;;;;;4990720;28;20462;-74
2021/07/11 07:41:12;;;;;;;25.67;24.37;;;22.60;66.30;;;;;;4990436;28;20532;-73
2021/07/11 07:43:40;;;;;;;25.50;24.20;;;22.70;65.50;;;;;;4987980;28;20454;-73
2021/07/11 07:46:07;;;;;;;26.63;25.23;;;22.50;63.90;;;;;;4990996;28;20478;-70
2021/07/11 07:48:33;;;;;;;26.13;24.73;;;22.00;65.60;;;;;;4993492;28;20453;-72
2021/07/11 07:51:00;;;;;;;25.93;24.63;;;21.40;67.40;;;;;;4990109;28;20504;-73
2021/07/11 07:53:27;;;;;;;26.53;25.20;;;21.60;68.10;;;;;;4991161;28;20454;-71
2021/07/11 07:55:56;;;;;;;26.73;25.00;;;21.60;67.20;;;;;;4988491;28;20838;-70
2021/07/11 07:58:23;;;;;;;25.60;24.30;;;21.50;68.00;;;;;;4984842;28;20466;-70
2021/07/11 08:00:52;;;;;;;26.93;25.43;;;21.50;68.40;;;;;;4984660;28;20548;-70
2021/07/11 08:03:19;;;;;;;27.77;26.30;;;21.40;68.70;;;;;;4992379;28;20477;-70
2021/07/11 08:05:46;;;;;;;26.70;25.30;;;21.60;68.80;;;;;;4985718;28;20496;-70
2021/07/11 08:08:13;;;;;;;27.30;25.57;;;21.60;68.20;;;;;;4987312;28;20461;-70
2021/07/11 08:10:40;;;;;;;26.07;24.60;;;21.80;68.30;;;;;;4985460;28;20481;-71
2021/07/11 08:13:09;;;;;;;25.67;24.27;;;21.70;68.20;;;;;;5001198;28;20517;-70
2021/07/11 08:15:36;;;;;;;27.40;26.00;;;22.00;66.90;;;;;;4988274;28;20474;-71
2021/07/11 08:18:03;;;;;;;27.23;25.73;;;21.90;67.00;;;;;;4987142;28;20875;-71
2021/07/11 08:20:31;;;;;;;26.80;25.23;;;22.00;64.90;;;;;;4988686;28;20581;-71
2021/07/11 08:22:58;;;;;;;28.40;26.90;;;21.50;66.10;;;;;;4979615;28;20472;-71
2021/07/11 08:25:25;;;;;;;26.63;25.23;;;21.60;65.90;;;;;;4989168;28;20703;-70
2021/07/11 08:27:52;;;;;;;26.90;25.40;;;21.30;66.90;;;;;;4983967;28;20465;-70
2021/07/11 08:30:20;;;;;;;28.20;26.70;;;21.60;66.70;;;;;;4988093;28;20999;-70
2021/07/11 08:32:47;;;;;;;27.77;26.37;;;21.70;65.90;;;;;;4988522;28;20828;-70
2021/07/11 08:35:15;;;;;;;26.30;25.00;;;21.90;65.70;;;;;;4990890;28;20959;-70
2021/07/11 08:37:42;;;;;;;26.73;25.37;;;22.10;64.20;;;;;;4986234;28;20516;-70
2021/07/11 08:40:11;;;;;;;26.13;24.73;;;22.10;63.70;;;;;;4986814;28;20501;-69
2021/07/11 08:42:40;;;;;;;26.00;24.60;;;22.40;63.20;;;;;;4991262;28;20472;-70
2021/07/11 08:45:08;;;;;;;26.13;24.83;;;22.20;63.50;;;;;;4991091;28;20477;-70
2021/07/11 08:47:38;;;;;;;26.30;24.90;;;21.70;64.70;;;;;;4988658;28;20457;-70
2021/07/11 08:50:06;;;;;;;24.97;23.67;;;21.40;66.20;;;;;;4987754;28;20545;-69
2021/07/11 08:52:34;;;;;;;25.63;24.30;;;21.80;66.20;;;;;;4989103;28;20476;-70
2021/07/11 08:55:01;;;;;;;26.67;25.27;;;22.00;65.50;;;;;;4988585;28;20513;-71
2021/07/11 08:57:28;;;;;;;26.33;24.63;;;22.20;65.20;;;;;;4988984;28;20457;-72
2021/07/11 08:59:55;;;;;;;26.30;24.90;;;22.40;64.60;;;;;;4992336;28;20973;-71
2021/07/11 09:02:22;;;;;;;26.37;24.97;;;22.60;64.40;;;;;;4986115;28;20476;-71
2021/07/11 09:04:50;;;;;;;26.13;24.83;;;22.90;63.40;;;;;;5002781;28;20580;-73
2021/07/11 09:07:18;;;;;;;26.13;24.73;;;23.00;63.00;;;;;;4987783;28;20461;-71
2021/07/11 09:09:45;;;;;;;27.43;25.93;;;23.20;62.20;;;;;;4988657;28;20464;-71
2021/07/11 09:12:13;;;;;;;25.93;24.53;;;23.30;63.00;;;;;;4987964;28;20498;-71
2021/07/11 09:14:43;;;;;;;27.03;25.47;;;23.30;62.70;;;;;;4987789;28;21002;-70
2021/07/11 09:17:11;;;;;;;28.07;26.57;;;23.30;62.60;;;;;;4988929;28;21212;-70
2021/07/11 09:19:41;;;;;;;27.80;26.30;;;23.30;63.00;;;;;;4990884;28;20453;-70
2021/07/11 09:22:11;;;;;;;27.30;25.73;;;23.00;63.50;;;;;;4987432;28;20472;-69
2021/07/11 09:24:46;;;;;;;26.87;25.40;;;22.80;64.50;;;;;;4994475;28;21003;-70
2021/07/11 09:27:15;;;;;;;27.17;25.67;;;22.80;63.80;;;;;;4987143;28;20465;-71
2021/07/11 09:29:44;;;;;;;28.23;26.90;;;22.80;62.80;;;;;;4995271;28;20892;-71
2021/07/11 09:32:23;;;;;;;27.10;25.60;;;22.60;62.60;;;;;;4985599;28;20518;-71
2021/07/11 09:34:50;;;;;;;28.30;26.87;;;22.60;63.00;;;;;;4992892;28;20485;-71
2021/07/11 09:37:20;;;;;;;27.03;25.63;;;22.70;62.00;;;;;;4986794;28;20466;-71
2021/07/11 09:39:50;;;;;;;26.80;25.40;;;22.90;62.50;;;;;;4986454;28;20500;-72
2021/07/11 09:42:32;;;;;;;26.67;25.27;;;23.10;61.30;;;;;;4987057;28;20468;-71
2021/07/11 09:45:01;;;;;;;26.43;24.93;;;22.60;61.80;;;;;;4981418;28;20477;-71
2021/07/11 09:47:29;;;;;;;25.93;24.63;;;22.40;62.70;;;;;;4988965;28;20457;-72
2021/07/11 09:50:15;;;;;;;27.30;25.90;;;22.60;62.80;;;;;;4988870;28;20468;-71
2021/07/11 09:52:45;;;;;;;26.77;25.37;;;23.00;61.80;;;;;;4988431;28;20477;-71
2021/07/11 09:55:16;;;;;;;28.13;26.63;;;23.40;60.80;;;;;;4991196;28;20476;-75
2021/07/11 09:57:46;;;;;;;27.07;25.77;;;23.40;61.10;;;;;;4986848;28;20463;-73
2021/07/11 10:00:17;;;;;;;26.40;25.00;;;23.50;60.80;;;;;;4987081;28;20819;-73
2021/07/11 10:02:45;;;;;;;28.40;26.70;;;23.50;60.90;;;;;;4989803;28;20986;-72
2021/07/11 10:05:13;;;;;;;26.50;25.10;;;23.10;61.50;;;;;;4991700;28;20493;-72
2021/07/11 10:07:42;;;;;;;27.20;25.80;;;22.80;62.60;;;;;;4992005;28;20478;-72
2021/07/11 10:10:11;;;;;;;27.30;25.90;;;23.10;63.00;;;;;;4986836;28;20457;-72
2021/07/11 10:12:40;;;;;;;26.87;25.53;;;23.50;63.20;;;;;;4986170;28;20488;-71
2021/07/11 10:15:11;;;;;;;27.37;25.90;;;23.50;61.20;;;;;;4985824;28;20492;-70
2021/07/11 10:17:43;;;;;;;27.50;26.10;;;23.10;61.90;;;;;;4995268;28;20957;-70
2021/07/11 10:20:11;;;;;;;26.50;25.20;;;22.90;62.70;;;;;;4994539;28;20480;-70
2021/07/11 10:22:44;;;;;;;26.97;25.60;;;22.70;63.30;;;;;;4984867;28;20576;-70
2021/07/11 10:25:14;;;;;;;26.03;24.73;;;22.80;63.40;;;;;;4986385;28;20485;-69
2021/07/11 10:27:41;;;;;;;26.90;25.27;;;22.90;62.80;;;;;;4990474;28;20963;-70
2021/07/11 10:30:10;;;;;;;26.33;24.87;;;22.90;62.60;;;;;;4989897;28;20449;-70
2021/07/11 10:32:37;;;;;;;27.67;26.27;;;23.10;62.60;;;;;;4970003;28;20481;-70
2021/07/11 10:35:15;;;;;;;27.67;26.17;;;23.60;61.60;;;;;;4987195;28;20943;-70
2021/07/11 10:37:51;;;;;;;26.70;25.40;;;23.60;61.10;;;;;;4988333;28;20458;-70
2021/07/11 10:40:21;;;;;;;27.27;25.77;;;23.70;60.80;;;;;;4988121;28;20461;-70
2021/07/11 10:42:50;;;;;;;26.90;25.40;;;23.60;61.20;;;;;;4990068;28;20464;-71
2021/07/11 10:45:18;;;;;;;27.97;26.47;;;23.60;61.40;;;;;;4990824;28;20491;-70
2021/07/11 10:47:46;;;;;;;28.53;26.93;;;23.30;61.50;;;;;;4987887;28;20465;-69
2021/07/11 10:50:27;;;;;;;27.73;26.33;;;23.40;61.30;;;;;;4987380;28;20457;-70
2021/07/11 10:52:57;;;;;;;26.30;25.00;;;23.70;60.80;;;;;;4984567;28;20497;-70
2021/07/11 10:55:25;;;;;;;27.77;26.37;;;23.30;59.80;;;;;;4985311;28;20558;-69
2021/07/11 10:57:52;;;;;;;26.47;25.00;;;22.80;61.50;;;;;;4990381;28;20536;-69
2021/07/11 11:00:22;;;;;;;26.17;24.67;;;22.60;62.80;;;;;;4990812;28;20465;-69
2021/07/11 11:02:50;;;;;;;28.80;27.30;;;22.90;62.40;;;;;;4991650;28;20497;-70
2021/07/11 11:05:23;;;;;;;27.73;26.23;;;23.30;61.60;;;;;;4988085;28;20839;-69
2021/07/11 11:07:52;;;;;;;27.50;26.10;;;23.40;60.70;;;;;;4988728;28;20464;-70
2021/07/11 11:10:32;;;;;;;25.63;24.33;;;23.40;60.90;;;;;;4995156;28;20458;-69
2021/07/11 11:13:19;;;;;;;26.50;25.20;;;23.60;60.30;;;;;;4982005;28;20491;-70
2021/07/11 11:15:48;;;;;;;27.50;26.10;;;23.70;60.00;;;;;;4995191;28;20473;-70
2021/07/11 11:18:27;;;;;;;27.03;25.53;;;23.90;60.30;;;;;;4999247;28;20453;-69
2021/07/11 11:21:01;;;;;;;26.37;24.77;;;24.10;59.70;;;;;;4996550;28;20911;-70
2021/07/11 11:23:32;;;;;;;27.70;26.20;;;24.30;58.60;;;;;;4990153;28;20457;-70
2021/07/11 11:26:02;;;;;;;26.30;24.90;;;24.30;58.60;;;;;;4990068;28;20493;-70
2021/07/11 11:28:32;;;;;;;26.50;25.00;;;24.30;58.50;;;;;;5002896;28;20461;-69
2021/07/11 11:31:07;;;;;;;27.23;25.83;;;24.40;58.40;;;;;;4988087;28;20963;-69
2021/07/11 11:33:46;;;;;;;27.50;26.00;;;24.60;58.00;;;;;;4990559;28;20509;-69
2021/07/11 11:36:13;;;;;;;26.60;25.20;;;24.70;57.90;;;;;;4985908;28;20485;-69
2021/07/11 11:38:42;;;;;;;27.00;25.50;;;24.80;57.80;;;;;;4991556;28;20473;-71
2021/07/11 11:41:13;;;;;;;30.00;28.30;;;25.00;57.90;;;;;;4988785;28;20462;-72
2021/07/11 11:43:40;;;;;;;28.00;26.50;;;25.10;56.90;;;;;;4991304;28;20450;-71
2021/07/11 11:46:07;;;;;;;27.37;25.80;;;25.30;57.30;;;;;;4990511;28;20481;-71
2021/07/11 11:48:34;;;;;;;26.33;25.00;;;25.40;57.40;;;;;;4990740;28;20819;-73
2021/07/11 11:51:04;;;;;;;29.37;27.67;;;25.70;56.60;;;;;;4986253;28;20453;-71
2021/07/11 11:53:32;;;;;;;28.23;26.70;;;25.90;56.70;;;;;;4983608;28;21046;-71
2021/07/11 11:55:59;;;;;;;26.77;25.37;;;26.10;55.30;;;;;;4989940;28;20504;-71
2021/07/11 11:58:28;;;;;;;26.50;25.10;;;26.20;55.60;;;;;;4999993;28;20471;-71
2021/07/11 12:01:02;;;;;;;27.67;26.27;;;26.50;54.30;;;;;;4988583;28;20466;-71
2021/07/11 12:03:29;;;;;;;31.43;29.70;;;26.60;54.60;;;;;;5004435;28;20552;-71
2021/07/11 12:06:00;;;;;;;27.13;25.57;;;26.70;53.90;;;;;;4987231;28;21015;-71
2021/07/11 12:08:28;;;;;;;27.23;25.83;;;26.80;53.50;;;;;;4988712;28;20480;-71
2021/07/11 12:10:55;;;;;;;27.00;25.60;;;26.80;53.40;;;;;;4986503;28;20560;-71
2021/07/11 12:13:23;;;;;;;28.20;26.53;;;26.90;53.30;;;;;;4987745;28;20478;-71
2021/07/11 12:16:02;;;;;;;27.43;25.93;;;26.80;53.80;;;;;;4983770;28;20488;-71
2021/07/11 12:18:28;;;;;;;27.17;25.57;;;26.80;53.60;;;;;;4984614;28;20458;-71
2021/07/11 12:20:56;;;;;;;28.33;26.73;;;26.80;53.50;;;;;;4986575;28;20463;-71
2021/07/11 12:23:24;;;;;;;29.03;27.43;;;27.00;53.80;;;;;;4992886;28;20890;-71
2021/07/11 12:25:59;;;;;;;27.47;25.97;;;27.10;53.20;;;;;;4991333;28;20535;-71
2021/07/11 12:28:26;;;;;;;27.03;25.53;;;27.30;52.20;;;;;;4994527;28;20465;-70
2021/07/11 12:30:56;;;;;;;28.97;27.37;;;27.30;52.30;;;;;;4985851;28;20560;-71
2021/07/11 12:33:27;;;;;;;28.90;27.10;;;27.50;52.20;;;;;;4991148;28;20513;-71
2021/07/11 12:35:58;;;;;;;28.50;27.00;;;27.80;52.60;;;;;;4987846;28;20844;-71